Garfield, AR (72732)

5:42 AM CDT on July 26, 2016 (GMT -0500)
| | Change Station

Elev -9999 ft 0.00 °N, 0.00 °E | Updated

Mostly Cloudy
Mostly Cloudy
75 °F
Feels Like 75 °F
N
3
Wind Variable Wind from East
Gusts mph

Today
High -- | Low -- °F
--% Chance of Precip.
Yesterday
High -- | Low -- °F
Precip. -- in
Pressure 29.98 in
Visibility 10.0 miles
Clouds Clear
Dew Point 72 °F
Humidity 92%
Rainfall --
Snow Depth Not available.
6:17 AM 8:26 PM
Waning Gibbous, 56% visible
METAR KROG 260958Z AUTO 11003KT 10SM CLR 23/22 A3003 RMK AO2 SLP152 T02330222 $
Pressure 29.98 in
Visibility 10.0 miles
Clouds Clear
Dew Point 72 °F
Humidity 92%
Rainfall --
Snow Depth Not available.
6:17 AM 8:26 PM
Waning Gibbous, 56% visible
METAR KROG 260958Z AUTO 11003KT 10SM CLR 23/22 A3003 RMK AO2 SLP152 T02330222 $

10-Day Weather Forecast

Almanac

Astronomy

Jul. 26, 2016 Rise Set
Actual Time
Civil Twilight
Nautical Twilight
Astronomical Twilight
Moon
Length of Visible Light
Length of Day
Tomorrow will be .
, % of the Moon is Illuminated

Today's Extremes

State Highs State Lows

Community

WunderPhotos

Upload Photos

1,927,557 photos uploaded!

WunderBlog® & News

Nearby

Air Quality

  Air Quality AQ Index Pollutant
Not available.

Snow Depth

Station Depth Elevation

Earthquake Activity

City Distance Mag. Time & Date
Minimum magnitude displayed is 2.5.

Coastal Water Temperatures

Place Temperature

Stations

Nearby Weather Stations

Station Location Temp. Windchill Dew Point Humidity Wind Precip. Elev Updated Type
                   

Watches & Warnings

There are currently no watches in effect.